createdAt,value
2022-09-03T00:02:28.245Z,8.32
2022-09-03T00:05:14.609Z,12.68
2022-09-03T00:08:04.233Z,9.77
2022-09-03T00:10:46.761Z,8.25
2022-09-03T00:13:23.457Z,11.20
2022-09-03T00:15:53.478Z,12.02
2022-09-03T00:18:23.705Z,10.15
2022-09-03T00:20:55.769Z,9.77
2022-09-03T00:23:27.264Z,13.65
2022-09-03T00:26:23.146Z,9.90
2022-09-03T00:29:12.247Z,11.88
2022-09-03T00:31:53.516Z,12.60
2022-09-03T00:34:32.569Z,8.25
2022-09-03T00:36:59.481Z,10.55
2022-09-03T00:39:28.467Z,10.05
2022-09-03T00:42:14.106Z,10.13
2022-09-03T00:45:04.137Z,12.38
2022-09-03T00:47:36.782Z,12.50
2022-09-03T00:50:21.073Z,11.07
2022-09-03T00:53:06.508Z,9.07
2022-09-03T00:55:58.817Z,10.40
2022-09-03T00:58:39.445Z,10.13
2022-09-03T01:01:26.480Z,10.68
2022-09-03T01:03:56.378Z,13.73
2022-09-03T01:06:43.375Z,9.15
2022-09-03T01:09:41.119Z,10.35
2022-09-03T01:12:33.127Z,12.52
2022-09-03T01:15:09.855Z,19.95
2022-09-03T01:17:37.050Z,12.98
2022-09-03T01:20:18.681Z,10.45
2022-09-03T01:23:01.889Z,11.27
2022-09-03T01:25:53.407Z,11.23
2022-09-03T01:28:45.069Z,8.80
2022-09-03T01:31:35.421Z,15.13
2022-09-03T01:34:16.346Z,7.68
2022-09-03T01:37:07.980Z,14.25
2022-09-03T01:39:44.678Z,11.73
2022-09-03T01:42:28.606Z,11.00
2022-09-03T01:45:07.720Z,10.55
2022-09-03T01:47:51.928Z,8.30
2022-09-03T01:50:37.446Z,8.30
2022-09-03T01:53:14.038Z,9.65
2022-09-03T01:56:09.996Z,10.93
2022-09-03T01:58:47.162Z,7.68
2022-09-03T02:01:21.843Z,8.93
2022-09-03T02:03:48.996Z,10.77
2022-09-03T02:06:15.805Z,8.95
2022-09-03T02:08:42.568Z,11.55
2022-09-03T02:13:48.677Z,8.15
2022-09-03T02:16:20.324Z,12.60
2022-09-03T02:18:51.529Z,9.57
2022-09-03T02:21:21.707Z,10.40
2022-09-03T02:23:49.594Z,10.52
2022-09-03T02:26:21.561Z,10.95
2022-09-03T02:28:49.844Z,10.90
2022-09-03T02:31:16.699Z,10.48
2022-09-03T02:33:46.766Z,8.77
2022-09-03T02:36:18.494Z,9.10
2022-09-03T02:38:46.317Z,6.97
2022-09-03T02:41:15.217Z,11.07
2022-09-03T02:43:51.645Z,7.82
2022-09-03T02:46:29.877Z,9.43
2022-09-03T02:48:56.832Z,8.45
2022-09-03T02:51:23.628Z,8.38
2022-09-03T02:53:50.910Z,9.35
2022-09-03T02:56:18.361Z,7.60
2022-09-03T02:58:45.267Z,9.50
2022-09-03T03:01:12.827Z,18.50
2022-09-03T03:03:51.037Z,8.27
2022-09-03T03:06:20.837Z,11.15
2022-09-03T03:08:49.915Z,11.40
2022-09-03T03:11:18.476Z,10.45
2022-09-03T03:13:46.451Z,7.93
2022-09-03T03:16:15.025Z,8.77
2022-09-03T03:18:41.865Z,12.18
2022-09-03T03:21:17.028Z,10.85
2022-09-03T03:23:44.626Z,9.73
2022-09-03T03:26:14.717Z,10.50
2022-09-03T03:28:42.573Z,12.32
2022-09-03T03:31:21.532Z,9.25
2022-09-03T03:33:59.782Z,9.45
2022-09-03T03:36:30.216Z,6.65
2022-09-03T03:38:59.197Z,10.07
2022-09-03T03:41:32.668Z,12.00
2022-09-03T03:44:02.272Z,11.93
2022-09-03T03:46:32.850Z,9.10
2022-09-03T03:48:59.951Z,14.98
2022-09-03T03:51:27.235Z,7.95
2022-09-03T03:53:56.800Z,7.35
2022-09-03T03:56:24.766Z,9.80
2022-09-03T03:58:52.229Z,6.45
2022-09-03T04:01:21.359Z,9.07
2022-09-03T04:03:48.992Z,8.18
2022-09-03T04:06:17.622Z,8.82
2022-09-03T04:08:46.374Z,11.05
2022-09-03T04:11:18.520Z,8.07
2022-09-03T04:13:46.845Z,9.20
2022-09-03T04:16:18.888Z,8.75
2022-09-03T04:18:46.680Z,10.02
2022-09-03T04:21:16.626Z,9.40
2022-09-03T04:23:45.822Z,8.48
2022-09-03T04:26:15.658Z,12.60
2022-09-03T04:28:42.635Z,7.53
2022-09-03T04:31:12.334Z,13.10
2022-09-03T04:33:40.438Z,16.10
2022-09-03T04:36:13.434Z,13.65
2022-09-03T04:38:42.113Z,37.35
2022-09-03T04:41:11.330Z,41.35
2022-09-03T04:43:40.001Z,88.18
2022-09-03T04:46:16.129Z,65.75
2022-09-03T04:48:47.704Z,108.60
2022-09-03T04:51:17.541Z,169.65
2022-09-03T04:53:46.516Z,29.83
2022-09-03T04:56:23.819Z,18.52
2022-09-03T04:59:01.845Z,22.50
2022-09-03T05:01:31.887Z,25.27
2022-09-03T05:03:59.804Z,63.53
2022-09-03T05:06:28.054Z,31.58
2022-09-03T05:08:55.737Z,34.15
2022-09-03T05:11:23.943Z,30.67
2022-09-03T05:13:53.926Z,29.73
2022-09-03T05:16:22.138Z,27.65
2022-09-03T05:18:53.037Z,112.05
2022-09-03T05:21:20.752Z,118.30
2022-09-03T05:23:50.757Z,87.20
2022-09-03T05:26:20.813Z,139.50
2022-09-03T05:28:48.505Z,79.55
2022-09-03T05:31:20.441Z,88.47
2022-09-03T05:33:51.533Z,97.13
2022-09-03T05:36:22.331Z,99.18
2022-09-03T05:38:49.824Z,101.82
2022-09-03T05:41:19.040Z,92.63
2022-09-03T05:43:52.045Z,101.55
2022-09-03T05:46:19.219Z,119.43
2022-09-03T05:48:46.049Z,104.90
2022-09-03T05:51:18.277Z,58.65
2022-09-03T05:53:47.550Z,93.35
2022-09-03T05:56:18.874Z,88.22
2022-09-03T05:58:48.182Z,132.25
2022-09-03T06:01:20.572Z,51.17
2022-09-03T06:03:55.238Z,55.08
2022-09-03T06:06:25.984Z,104.30
2022-09-03T06:08:58.220Z,156.43
2022-09-03T06:11:28.298Z,49.58
2022-09-03T06:13:56.811Z,55.58
2022-09-03T06:16:30.604Z,49.80
2022-09-03T06:19:02.735Z,37.70
2022-09-03T06:21:30.108Z,36.13
2022-09-03T06:23:59.681Z,106.15
2022-09-03T06:26:30.811Z,25.13
2022-09-03T06:28:58.294Z,50.90
2022-09-03T06:31:27.078Z,19.77
2022-09-03T06:33:54.759Z,26.48
2022-09-03T06:36:23.822Z,25.63
2022-09-03T06:38:55.879Z,21.75
2022-09-03T06:41:28.315Z,18.25
2022-09-03T06:44:06.498Z,17.83
2022-09-03T06:46:35.774Z,22.35
2022-09-03T06:49:05.133Z,21.40
2022-09-03T06:51:33.435Z,15.43
2022-09-03T06:54:11.561Z,22.85
2022-09-03T06:56:41.237Z,15.90
2022-09-03T06:59:13.768Z,13.90
2022-09-03T07:01:44.443Z,16.05
2022-09-03T07:04:16.243Z,13.70
2022-09-03T07:06:45.362Z,14.77
2022-09-03T07:09:15.538Z,14.32
2022-09-03T07:11:48.160Z,9.10
2022-09-03T07:14:19.203Z,10.40
2022-09-03T07:16:47.158Z,10.65
2022-09-03T07:19:14.710Z,10.93
2022-09-03T07:21:48.133Z,10.15
2022-09-03T07:24:16.088Z,9.82
2022-09-03T07:26:47.100Z,9.20
2022-09-03T07:29:15.946Z,8.45
2022-09-03T07:31:44.219Z,12.77
2022-09-03T07:34:13.248Z,8.38
2022-09-03T07:36:47.705Z,8.55
2022-09-03T07:39:18.275Z,9.18
2022-09-03T07:41:46.580Z,7.05
2022-09-03T07:44:16.312Z,7.75
2022-09-03T07:46:45.477Z,7.53
2022-09-03T07:49:12.504Z,15.68
2022-09-03T07:51:40.033Z,7.68
2022-09-03T07:54:11.583Z,9.50
2022-09-03T07:56:40.199Z,13.63
2022-09-03T07:59:07.389Z,6.93
2022-09-03T08:04:02.945Z,14.80
2022-09-03T08:06:31.261Z,11.13
2022-09-03T08:09:04.831Z,7.82
2022-09-03T08:11:36.421Z,7.75
2022-09-03T08:14:08.657Z,7.80
2022-09-03T08:16:38.447Z,15.63
2022-09-03T08:19:08.117Z,12.82
2022-09-03T08:21:36.476Z,9.32
2022-09-03T08:24:03.597Z,6.57
2022-09-03T08:26:35.961Z,7.70
2022-09-03T08:29:04.193Z,6.45
2022-09-03T08:31:32.572Z,6.28
2022-09-03T08:34:03.283Z,9.13
2022-09-03T08:36:31.567Z,4.97
2022-09-03T08:39:04.509Z,5.22
2022-09-03T08:41:41.073Z,6.50
2022-09-03T08:44:14.204Z,5.55
2022-09-03T08:46:47.917Z,7.78
2022-09-03T08:49:24.500Z,5.25
2022-09-03T08:51:54.943Z,8.77
2022-09-03T08:54:27.029Z,4.32
2022-09-03T08:56:55.952Z,6.68
2022-09-03T08:59:32.881Z,4.85
2022-09-03T09:02:35.558Z,9.65
2022-09-03T09:05:14.359Z,7.85
2022-09-03T09:08:09.132Z,6.68
2022-09-03T09:10:49.255Z,6.32
2022-09-03T09:13:19.061Z,11.05
2022-09-03T09:16:04.321Z,5.25
2022-09-03T09:19:00.142Z,5.82
2022-09-03T09:21:36.142Z,6.18
2022-09-03T09:24:33.058Z,4.40
2022-09-03T09:27:03.283Z,6.78
2022-09-03T09:29:35.519Z,4.82
2022-09-03T09:32:04.714Z,4.32
2022-09-03T09:34:37.167Z,4.15
2022-09-03T09:37:08.152Z,8.20
2022-09-03T09:39:34.998Z,6.22
2022-09-03T09:42:09.483Z,4.15
2022-09-03T09:44:37.725Z,3.95
2022-09-03T09:47:08.546Z,5.50
2022-09-03T09:49:37.411Z,6.78
2022-09-03T09:52:16.325Z,7.03
2022-09-03T09:54:48.519Z,3.55
2022-09-03T09:57:18.759Z,4.68
2022-09-03T09:59:50.481Z,3.65
2022-09-03T10:02:28.816Z,4.60
2022-09-03T10:05:11.996Z,2.90
2022-09-03T10:07:38.846Z,4.68
2022-09-03T10:10:16.079Z,4.28
2022-09-03T10:13:01.706Z,4.25
2022-09-03T10:15:45.417Z,3.35
2022-09-03T10:18:36.697Z,7.28
2022-09-03T10:21:12.847Z,4.20
2022-09-03T10:24:20.080Z,4.95
2022-09-03T10:26:46.958Z,4.65
2022-09-03T10:29:29.477Z,4.05
2022-09-03T10:32:22.947Z,9.63
2022-09-03T10:34:49.677Z,4.03
2022-09-03T10:37:25.148Z,3.72
2022-09-03T10:40:15.157Z,5.85
2022-09-03T10:42:53.628Z,4.20
2022-09-03T10:45:48.146Z,4.35
2022-09-03T10:48:53.422Z,3.17
2022-09-03T10:51:50.214Z,6.35
2022-09-03T10:54:48.571Z,2.28
2022-09-03T10:57:32.879Z,2.95
2022-09-03T11:00:15.634Z,2.10
2022-09-03T11:03:12.650Z,2.97
2022-09-03T11:05:52.066Z,2.53
2022-09-03T11:08:28.456Z,4.40
2022-09-03T11:11:15.573Z,3.60
2022-09-03T11:13:54.061Z,4.95
2022-09-03T11:16:27.101Z,3.00
2022-09-03T11:19:13.766Z,7.57
2022-09-03T11:21:42.449Z,2.97
2022-09-03T11:24:13.656Z,4.47
2022-09-03T11:27:15.109Z,3.85
2022-09-03T11:30:08.525Z,4.78
2022-09-03T11:33:07.490Z,2.45
2022-09-03T11:35:34.382Z,3.38
2022-09-03T11:38:21.538Z,3.90
2022-09-03T11:41:27.168Z,2.20
2022-09-03T11:43:54.779Z,2.88
2022-09-03T11:46:21.901Z,4.10
2022-09-03T11:49:12.203Z,4.28
2022-09-03T11:51:41.949Z,3.05
2022-09-03T11:54:14.795Z,2.33
2022-09-03T11:56:42.829Z,6.18
2022-09-03T11:59:24.512Z,3.25
2022-09-03T12:01:59.079Z,2.42
2022-09-03T12:04:51.784Z,3.92
2022-09-03T12:07:27.198Z,3.28
2022-09-03T12:10:13.479Z,2.30
2022-09-03T12:13:12.679Z,3.00
2022-09-03T12:15:59.320Z,4.00
2022-09-03T12:18:31.268Z,5.30
2022-09-03T12:21:01.017Z,2.83
2022-09-03T12:23:32.542Z,6.97
2022-09-03T12:26:06.572Z,2.42
2022-09-03T12:28:37.910Z,2.90
2022-09-03T12:31:25.372Z,2.40
2022-09-03T12:33:59.332Z,2.33
2022-09-03T12:36:46.141Z,2.58
2022-09-03T12:39:17.988Z,2.55
2022-09-03T12:42:04.931Z,2.10
2022-09-03T12:44:33.324Z,3.53
2022-09-03T12:50:10.929Z,2.83
2022-09-03T12:53:03.842Z,4.20
2022-09-03T12:55:33.833Z,2.25
2022-09-03T12:58:13.625Z,5.10
2022-09-03T13:01:04.071Z,4.05
2022-09-03T13:04:01.913Z,3.45
2022-09-03T13:07:04.158Z,2.53
2022-09-03T13:09:36.599Z,2.33
2022-09-03T13:12:07.592Z,3.05
2022-09-03T13:14:47.338Z,5.82
2022-09-03T13:17:32.915Z,2.95
2022-09-03T13:20:25.078Z,2.33
2022-09-03T13:23:13.627Z,2.90
2022-09-03T13:25:43.491Z,4.47
2022-09-03T13:28:43.089Z,7.07
2022-09-03T13:31:22.068Z,5.07
2022-09-03T13:33:56.282Z,9.30
2022-09-03T13:36:29.362Z,3.67
2022-09-03T13:39:08.416Z,1.98
2022-09-03T13:41:44.313Z,7.03
2022-09-03T13:44:35.788Z,9.93
2022-09-03T13:47:10.042Z,8.57
2022-09-03T13:50:19.806Z,4.78
2022-09-03T13:53:04.634Z,4.70
2022-09-03T13:55:31.372Z,2.45
2022-09-03T13:58:18.710Z,4.75
2022-09-03T14:03:50.210Z,5.22
2022-09-03T14:06:41.524Z,11.57
2022-09-03T14:09:34.068Z,3.95
2022-09-03T14:12:19.838Z,7.88
2022-09-03T14:14:50.473Z,5.97
2022-09-03T14:17:33.823Z,4.20
2022-09-03T14:20:04.550Z,3.88
2022-09-03T14:22:31.366Z,2.15
2022-09-03T14:25:11.527Z,3.55
2022-09-03T14:27:38.778Z,4.32
2022-09-03T14:30:18.634Z,3.97
2022-09-03T14:33:18.431Z,2.47
2022-09-03T14:36:06.675Z,4.53
2022-09-03T14:39:01.120Z,3.35
2022-09-03T14:41:46.455Z,3.42
2022-09-03T14:44:57.128Z,2.30
2022-09-03T14:47:39.418Z,3.17
2022-09-03T14:50:30.986Z,1.90
2022-09-03T14:53:16.842Z,3.47
2022-09-03T14:55:52.737Z,3.63
2022-09-03T14:58:38.222Z,4.95
2022-09-03T15:01:16.115Z,3.45
2022-09-03T15:04:01.792Z,3.33
2022-09-03T15:06:40.021Z,5.25
2022-09-03T15:09:27.843Z,2.95
2022-09-03T15:12:03.409Z,1.85
2022-09-03T15:14:40.688Z,3.00
2022-09-03T15:17:48.786Z,3.00
2022-09-03T15:20:31.597Z,3.75
2022-09-03T15:23:26.873Z,2.78
2022-09-03T15:26:34.025Z,7.20
2022-09-03T15:29:37.477Z,4.35
2022-09-03T15:32:10.348Z,4.03
2022-09-03T15:34:49.936Z,2.30
2022-09-03T15:37:41.993Z,3.03
2022-09-03T15:40:42.629Z,4.07
2022-09-03T15:43:17.425Z,4.70
2022-09-03T15:45:48.764Z,4.55
2022-09-03T15:48:34.366Z,11.98
2022-09-03T15:51:23.257Z,2.78
2022-09-03T15:53:55.833Z,3.15
2022-09-03T15:56:52.691Z,3.67
2022-09-03T15:59:29.259Z,2.50
2022-09-03T16:02:02.126Z,3.85
2022-09-03T16:04:57.025Z,3.15
2022-09-03T16:07:42.957Z,15.88
2022-09-03T16:10:26.301Z,4.88
2022-09-03T16:13:19.992Z,5.75
2022-09-03T16:16:02.591Z,1.88
2022-09-03T16:18:45.579Z,4.18
2022-09-03T16:21:23.894Z,4.70
2022-09-03T16:23:58.951Z,4.78
2022-09-03T16:26:37.622Z,15.95
2022-09-03T16:29:11.835Z,6.32
2022-09-03T16:32:17.704Z,6.85
2022-09-03T16:35:12.923Z,4.88
2022-09-03T16:37:45.971Z,3.00
2022-09-03T16:40:42.203Z,2.95
2022-09-03T16:43:39.580Z,3.65
2022-09-03T16:46:20.931Z,7.13
2022-09-03T16:49:06.407Z,4.95
2022-09-03T16:51:56.750Z,2.45
2022-09-03T16:54:57.396Z,6.22
2022-09-03T16:58:12.093Z,2.55
2022-09-03T17:01:03.610Z,5.40
2022-09-03T17:03:39.647Z,4.53
2022-09-03T17:06:15.939Z,3.30
2022-09-03T17:09:02.774Z,5.33
2022-09-03T17:11:38.473Z,3.35
2022-09-03T17:14:36.205Z,36.45
2022-09-03T17:17:37.482Z,5.75
2022-09-03T17:20:37.714Z,2.70
2022-09-03T17:23:05.826Z,9.98
2022-09-03T17:25:38.141Z,3.97
2022-09-03T17:28:07.820Z,4.60
2022-09-03T17:30:56.568Z,8.20
2022-09-03T17:33:48.480Z,8.07
2022-09-03T17:36:26.992Z,3.38
2022-09-03T17:39:27.666Z,7.03
2022-09-03T17:42:12.129Z,4.60
2022-09-03T17:45:03.679Z,3.00
2022-09-03T17:47:41.976Z,3.80
2022-09-03T17:50:11.735Z,4.78
2022-09-03T17:52:52.441Z,3.13
2022-09-03T17:55:22.178Z,30.40
2022-09-03T17:58:12.860Z,6.93
2022-09-03T18:01:08.626Z,7.38
2022-09-03T18:03:52.585Z,3.85
2022-09-03T18:06:52.526Z,5.50
2022-09-03T18:09:39.987Z,3.10
2022-09-03T18:12:13.538Z,2.65
2022-09-03T18:14:45.384Z,4.10
2022-09-03T18:17:31.527Z,3.13
2022-09-03T18:20:25.725Z,4.18
2022-09-03T18:23:35.745Z,6.50
2022-09-03T18:26:32.149Z,2.50
2022-09-03T18:29:22.684Z,6.38
2022-09-03T18:32:08.371Z,3.95
2022-09-03T18:34:55.095Z,2.75
2022-09-03T18:37:44.509Z,5.95
2022-09-03T18:40:38.309Z,5.28
2022-09-03T18:43:41.765Z,3.10
2022-09-03T18:48:01.090Z,4.22
2022-09-03T18:49:59.359Z,3.30
2022-09-03T18:53:29.589Z,4.38
2022-09-03T18:59:24.121Z,3.33
2022-09-03T19:02:12.019Z,3.78
2022-09-03T19:05:30.478Z,7.72
2022-09-03T19:08:32.870Z,2.58
2022-09-03T19:11:24.468Z,112.75
2022-09-03T19:14:10.845Z,4.97
2022-09-03T19:17:26.326Z,4.82
2022-09-03T19:20:36.446Z,4.13
2022-09-03T19:23:22.719Z,6.32
2022-09-03T19:26:11.130Z,7.28
2022-09-03T19:29:01.705Z,2.63
2022-09-03T19:32:09.700Z,2.85
2022-09-03T19:35:01.219Z,6.60
2022-09-03T19:38:19.253Z,4.20
2022-09-03T19:41:24.791Z,3.50
2022-09-03T19:44:29.355Z,5.20
2022-09-03T19:47:21.511Z,7.47
2022-09-03T19:50:23.752Z,4.47
2022-09-03T19:53:19.759Z,5.13
2022-09-03T19:56:11.218Z,6.95
2022-09-03T19:59:02.087Z,5.20
2022-09-03T20:01:54.604Z,5.35
2022-09-03T20:04:54.614Z,3.78
2022-09-03T20:07:40.190Z,5.35
2022-09-03T20:10:25.383Z,9.77
2022-09-03T20:13:19.856Z,5.18
2022-09-03T20:15:58.874Z,8.15
2022-09-03T20:18:39.055Z,4.90
2022-09-03T20:21:07.995Z,6.40
2022-09-03T20:23:59.544Z,4.25
2022-09-03T20:26:35.158Z,7.72
2022-09-03T20:29:07.960Z,4.75
2022-09-03T20:31:56.010Z,3.10
2022-09-03T20:34:44.594Z,4.00
2022-09-03T20:37:50.487Z,6.53
2022-09-03T20:40:29.738Z,5.38
2022-09-03T20:43:08.723Z,3.88
2022-09-03T20:45:57.390Z,6.93
2022-09-03T20:48:56.262Z,8.32
2022-09-03T20:54:12.726Z,6.15
2022-09-03T20:57:17.861Z,4.47
2022-09-03T21:00:01.509Z,5.25
2022-09-03T21:02:56.712Z,5.75
2022-09-03T21:05:53.581Z,5.13
2022-09-03T21:08:38.882Z,3.45
2022-09-03T21:11:11.194Z,6.53
2022-09-03T21:13:56.379Z,5.95
2022-09-03T21:17:00.297Z,11.15
2022-09-03T21:19:36.113Z,6.88
2022-09-03T21:22:13.638Z,5.18
2022-09-03T21:24:48.369Z,6.43
2022-09-03T21:27:20.907Z,7.60
2022-09-03T21:30:02.173Z,6.07
2022-09-03T21:32:42.668Z,8.98
2022-09-03T21:35:21.816Z,5.32
2022-09-03T21:37:57.662Z,7.38
2022-09-03T21:40:31.398Z,7.28
2022-09-03T21:43:33.602Z,6.80
2022-09-03T21:46:07.565Z,8.18
2022-09-03T21:48:35.724Z,6.50
2022-09-03T21:51:36.411Z,6.82
2022-09-03T21:54:09.418Z,6.10
2022-09-03T21:56:56.355Z,7.30
2022-09-03T21:59:25.686Z,4.25
2022-09-03T22:02:23.306Z,6.55
2022-09-03T22:04:51.158Z,8.32
2022-09-03T22:07:42.335Z,11.40
2022-09-03T22:10:36.658Z,9.68
2022-09-03T22:13:09.370Z,6.03
2022-09-03T22:15:38.093Z,8.38
2022-09-03T22:18:37.954Z,10.18
2022-09-03T22:21:28.014Z,6.97
2022-09-03T22:24:19.111Z,8.07
2022-09-03T22:27:03.495Z,7.32
2022-09-03T22:30:07.333Z,5.32
2022-09-03T22:33:11.744Z,5.63
2022-09-03T22:36:09.393Z,5.80
2022-09-03T22:38:39.949Z,7.07
2022-09-03T22:41:44.157Z,9.35
2022-09-03T22:44:28.806Z,9.30
2022-09-03T22:47:04.723Z,10.23
2022-09-03T22:50:09.218Z,7.60
2022-09-03T22:52:46.334Z,7.78
2022-09-03T22:55:18.502Z,12.93
2022-09-03T22:57:52.217Z,10.75
2022-09-03T23:00:19.486Z,14.63
2022-09-03T23:02:51.260Z,10.65
2022-09-03T23:05:27.115Z,7.97
2022-09-03T23:08:06.311Z,8.02
2022-09-03T23:11:01.162Z,7.43
2022-09-03T23:13:51.425Z,9.93
2022-09-03T23:16:42.584Z,7.25
2022-09-03T23:19:43.807Z,9.60
2022-09-03T23:22:13.291Z,7.28
2022-09-03T23:24:54.145Z,10.98
2022-09-03T23:27:27.137Z,6.70
2022-09-03T23:29:56.449Z,7.93
2022-09-03T23:32:25.475Z,11.57
2022-09-03T23:34:56.230Z,11.50
2022-09-03T23:37:42.224Z,9.48
2022-09-03T23:40:14.867Z,8.10
2022-09-03T23:43:06.792Z,6.18
2022-09-03T23:45:49.678Z,8.18
2022-09-03T23:48:53.533Z,7.57
2022-09-03T23:51:26.086Z,8.77
2022-09-03T23:54:31.875Z,10.88
2022-09-03T23:57:34.498Z,10.18
